Time;durP1;ratioP1;P1;durP2;ratioP2;P2;SDS_P1;SDS_P2;PMS_P1;PMS_P2;Temp;Humidity;BMP_temperature;BMP_pressure;BME280_temperature;BME280_humidity;BME280_pressure;Samples;Min_cycle;Max_cycle;Signal;HPM_P1;HPM_P2
2022/04/26 03:36:12;;;;;;;15.15;6.72;;;8.20;99.90;;;;;;5055027;28;20024;-62
2022/04/26 03:38:43;;;;;;;12.45;6.28;;;8.20;99.90;;;;;;5053912;28;20021;-67
2022/04/26 03:41:09;;;;;;;19.30;6.65;;;8.20;99.90;;;;;;5055199;28;20108;-65
2022/04/26 03:43:35;;;;;;;18.13;7.85;;;8.10;99.90;;;;;;5054916;28;20039;-64
2022/04/26 03:46:00;;;;;;;16.38;6.57;;;8.10;99.90;;;;;;5054818;28;20025;-63
2022/04/26 03:48:26;;;;;;;17.05;6.57;;;8.10;99.90;;;;;;5069314;28;20025;-64
2022/04/26 03:50:51;;;;;;;14.45;6.07;;;8.10;99.90;;;;;;5074952;28;20360;-64
2022/04/26 03:53:17;;;;;;;18.65;6.60;;;8.00;99.90;;;;;;5060064;28;20036;-67
2022/04/26 03:55:42;;;;;;;18.52;7.18;;;8.00;99.90;;;;;;5035054;28;20315;-62
2022/04/26 03:58:08;;;;;;;17.77;6.47;;;7.90;99.90;;;;;;5034893;28;20104;-65
2022/04/26 04:00:33;;;;;;;17.17;7.15;;;7.90;99.90;;;;;;5034816;28;20029;-68
2022/04/26 04:03:00;;;;;;;14.88;6.57;;;7.90;99.90;;;;;;5033655;28;20035;-63
2022/04/26 04:05:26;;;;;;;18.10;6.72;;;7.90;99.90;;;;;;5034560;28;20453;-67
2022/04/26 04:07:51;;;;;;;15.15;6.40;;;7.90;99.90;;;;;;5034455;28;20072;-67
2022/04/26 04:10:17;;;;;;;14.05;6.85;;;7.80;99.90;;;;;;5034248;28;20021;-64
2022/04/26 04:12:42;;;;;;;19.08;7.03;;;7.80;99.90;;;;;;5035489;28;20125;-66
2022/04/26 04:15:09;;;;;;;17.75;6.85;;;7.80;99.90;;;;;;5035035;28;20026;-62
2022/04/26 04:17:35;;;;;;;15.63;5.47;;;7.80;99.90;;;;;;5034290;28;20450;-64
2022/04/26 04:20:01;;;;;;;23.23;8.02;;;7.70;99.90;;;;;;5034441;28;20028;-64
2022/04/26 04:22:26;;;;;;;18.38;6.82;;;7.80;99.90;;;;;;5033064;28;20017;-65
2022/04/26 04:24:52;;;;;;;18.10;6.80;;;7.70;99.90;;;;;;5034371;28;20025;-67
2022/04/26 04:27:18;;;;;;;13.40;6.40;;;7.70;99.90;;;;;;5032598;28;20482;-63
2022/04/26 04:29:44;;;;;;;13.50;5.07;;;7.70;99.90;;;;;;5034257;28;20500;-68
2022/04/26 04:32:10;;;;;;;16.40;6.32;;;7.80;99.90;;;;;;5034043;28;20019;-68
2022/04/26 04:34:35;;;;;;;14.98;6.55;;;7.70;99.90;;;;;;5033767;28;20029;-68
2022/04/26 04:37:01;;;;;;;22.48;6.40;;;7.80;99.90;;;;;;5033692;28;20392;-66
2022/04/26 04:39:27;;;;;;;18.35;6.28;;;7.80;99.90;;;;;;5033207;28;20060;-66
2022/04/26 04:41:53;;;;;;;16.65;5.90;;;7.80;99.90;;;;;;5032717;28;20405;-65
2022/04/26 04:44:19;;;;;;;14.85;4.72;;;7.80;99.90;;;;;;5033893;28;20029;-64
2022/04/26 04:46:45;;;;;;;17.45;6.13;;;7.80;99.90;;;;;;5035272;28;20358;-64
2022/04/26 04:49:11;;;;;;;15.95;5.70;;;7.80;99.90;;;;;;5054009;28;20029;-63
2022/04/26 04:51:37;;;;;;;14.18;5.28;;;7.80;99.90;;;;;;5053418;28;20031;-64
2022/04/26 04:54:04;;;;;;;14.13;4.97;;;7.90;99.90;;;;;;5053196;28;20461;-64
2022/04/26 04:56:29;;;;;;;13.23;5.65;;;7.80;99.90;;;;;;5053588;28;20461;-64
2022/04/26 04:58:55;;;;;;;15.60;6.03;;;7.90;99.90;;;;;;5057450;28;20020;-64
2022/04/26 05:01:21;;;;;;;14.57;5.63;;;7.80;99.90;;;;;;5061782;28;20021;-64
2022/04/26 05:03:46;;;;;;;14.00;5.55;;;7.90;99.90;;;;;;5052933;28;20037;-63
2022/04/26 05:06:15;;;;;;;14.68;5.68;;;7.90;99.90;;;;;;5053409;28;20100;-64
2022/04/26 05:08:43;;;;;;;15.55;4.35;;;7.90;99.90;;;;;;5051980;28;20116;-64
2022/04/26 05:11:08;;;;;;;17.13;5.82;;;8.00;99.90;;;;;;5053182;28;20021;-64
2022/04/26 05:13:34;;;;;;;11.30;5.45;;;8.00;99.90;;;;;;5053174;28;20083;-63
2022/04/26 05:16:00;;;;;;;12.90;5.05;;;8.00;99.90;;;;;;5051520;28;20029;-64
2022/04/26 05:18:27;;;;;;;12.50;5.45;;;8.10;99.90;;;;;;5052368;28;20029;-65
2022/04/26 05:20:53;;;;;;;10.70;5.18;;;8.10;99.90;;;;;;5052705;28;20485;-63
2022/04/26 05:26:02;;;;;;;22.02;5.65;;;8.30;99.90;;;;;;5042586;28;20488;-66
2022/04/26 05:28:28;;;;;;;15.55;5.32;;;8.30;99.90;;;;;;5050939;28;20044;-64
2022/04/26 05:30:54;;;;;;;16.08;5.00;;;8.40;99.90;;;;;;5053089;28;20025;-66
2022/04/26 05:33:21;;;;;;;14.13;5.55;;;8.40;99.90;;;;;;5050767;28;20021;-62
2022/04/26 05:35:49;;;;;;;17.52;4.88;;;8.50;99.90;;;;;;5052430;28;20017;-67
2022/04/26 05:38:16;;;;;;;15.27;5.47;;;8.50;99.90;;;;;;5053087;28;20009;-65
2022/04/26 05:40:42;;;;;;;16.48;4.95;;;8.60;99.90;;;;;;5052286;28;20044;-65
2022/04/26 05:43:08;;;;;;;13.55;5.57;;;8.70;99.90;;;;;;5052731;28;20033;-66
2022/04/26 05:45:33;;;;;;;12.50;3.97;;;8.80;99.90;;;;;;5052542;28;20028;-66
2022/04/26 05:47:59;;;;;;;12.32;4.95;;;8.80;99.90;;;;;;5052612;28;20017;-66
2022/04/26 05:50:25;;;;;;;18.02;5.45;;;8.80;99.90;;;;;;5051569;28;20023;-64
2022/04/26 05:52:50;;;;;;;11.10;5.03;;;8.90;99.90;;;;;;5051060;28;20020;-65
2022/04/26 05:55:16;;;;;;;13.90;5.40;;;9.00;99.90;;;;;;5052056;28;20029;-67
2022/04/26 05:57:42;;;;;;;14.95;5.75;;;9.10;99.90;;;;;;5052389;28;20009;-65
2022/04/26 06:00:10;;;;;;;14.85;5.05;;;9.20;99.90;;;;;;5050576;28;20036;-63
2022/04/26 06:02:36;;;;;;;18.52;5.55;;;9.30;99.90;;;;;;5052561;28;20021;-65
2022/04/26 06:05:02;;;;;;;12.75;4.93;;;9.40;99.90;;;;;;5051397;28;20594;-66
2022/04/26 06:07:27;;;;;;;12.85;5.10;;;9.40;99.90;;;;;;5052312;28;20025;-63
2022/04/26 06:09:54;;;;;;;13.55;5.53;;;9.50;99.90;;;;;;5050621;28;20021;-64
2022/04/26 06:12:26;;;;;;;15.98;5.57;;;9.50;99.90;;;;;;5052068;28;20442;-63
2022/04/26 06:14:56;;;;;;;16.05;5.45;;;9.60;99.90;;;;;;5052117;28;20040;-65
2022/04/26 06:17:21;;;;;;;13.15;5.03;;;9.70;99.90;;;;;;5051306;28;20033;-66
2022/04/26 06:19:47;;;;;;;12.30;5.07;;;9.80;99.90;;;;;;5052008;28;20103;-67
2022/04/26 06:22:13;;;;;;;13.45;4.80;;;10.00;99.90;;;;;;5051760;28;20029;-67
2022/04/26 06:24:38;;;;;;;11.35;4.50;;;10.10;99.90;;;;;;5050729;28;20033;-63
2022/04/26 06:27:04;;;;;;;14.23;5.18;;;10.20;99.90;;;;;;5051569;28;20099;-66
2022/04/26 06:29:30;;;;;;;13.98;4.68;;;10.40;99.90;;;;;;5052612;28;20026;-66
2022/04/26 06:31:55;;;;;;;11.68;4.50;;;10.80;99.90;;;;;;5051923;28;20025;-67
2022/04/26 06:34:21;;;;;;;19.67;4.97;;;11.30;99.90;;;;;;5051994;28;20100;-66
2022/04/26 06:36:47;;;;;;;11.00;3.63;;;11.80;99.90;;;;;;5051206;28;20043;-66
2022/04/26 06:39:12;;;;;;;12.65;3.70;;;12.20;99.90;;;;;;5051643;28;20047;-64
2022/04/26 06:41:38;;;;;;;10.57;3.70;;;12.40;99.90;;;;;;5052294;28;20029;-62
2022/04/26 06:44:04;;;;;;;12.02;4.03;;;12.70;99.90;;;;;;5050970;28;20128;-67
2022/04/26 06:46:29;;;;;;;13.82;4.03;;;13.30;99.90;;;;;;5054974;28;20033;-65
2022/04/26 06:48:58;;;;;;;13.00;4.03;;;13.70;99.90;;;;;;5055372;28;20453;-64
2022/04/26 06:51:24;;;;;;;12.02;3.97;;;14.30;99.90;;;;;;5055700;28;20040;-66
2022/04/26 06:53:51;;;;;;;9.10;3.97;;;14.90;99.90;;;;;;5055488;28;20455;-66
2022/04/26 06:56:16;;;;;;;14.60;4.13;;;15.10;99.90;;;;;;5055686;28;20524;-64
2022/04/26 06:58:42;;;;;;;9.80;3.25;;;15.20;99.90;;;;;;5054366;28;20104;-67
2022/04/26 07:01:08;;;;;;;15.45;4.07;;;15.40;99.90;;;;;;5053992;28;20053;-66
2022/04/26 07:03:34;;;;;;;9.68;3.63;;;15.30;99.90;;;;;;5055575;28;20036;-64
2022/04/26 07:06:00;;;;;;;8.45;3.50;;;15.00;99.90;;;;;;5053719;28;20033;-63
2022/04/26 07:08:25;;;;;;;12.10;3.53;;;14.90;99.90;;;;;;5054330;28;20035;-63
2022/04/26 07:10:51;;;;;;;9.60;2.97;;;14.70;99.90;;;;;;5053504;28;20579;-63
2022/04/26 07:13:20;;;;;;;9.13;3.63;;;14.70;99.90;;;;;;5055473;28;20104;-63
2022/04/26 07:15:45;;;;;;;11.75;4.28;;;14.80;99.90;;;;;;5054790;28;20118;-64
2022/04/26 07:18:14;;;;;;;12.57;3.53;;;14.90;99.90;;;;;;5055290;28;20060;-64
2022/04/26 07:20:40;;;;;;;9.85;4.38;;;14.70;99.90;;;;;;5054793;28;20036;-68
2022/04/26 07:23:07;;;;;;;11.55;3.80;;;14.60;99.90;;;;;;5055411;28;20603;-67
2022/04/26 07:25:33;;;;;;;9.90;4.20;;;14.40;99.90;;;;;;5054684;28;20368;-66
2022/04/26 07:27:59;;;;;;;8.98;3.15;;;14.20;99.90;;;;;;5055014;28;20049;-65
2022/04/26 07:30:32;;;;;;;12.23;4.03;;;14.00;99.90;;;;;;5054702;28;20075;-68
2022/04/26 07:35:41;;;;;;;9.05;3.05;;;13.70;99.90;;;;;;5054146;28;20495;-64
2022/04/26 07:38:07;;;;;;;8.20;3.10;;;13.70;99.90;;;;;;5054725;28;20468;-66
2022/04/26 07:40:33;;;;;;;13.50;3.72;;;13.60;99.90;;;;;;5053472;28;20063;-66
2022/04/26 07:43:00;;;;;;;8.45;3.20;;;13.70;99.90;;;;;;5054929;28;20044;-62
2022/04/26 07:45:26;;;;;;;5.68;2.80;;;13.90;99.90;;;;;;5053300;28;20029;-64
2022/04/26 07:47:52;;;;;;;9.32;3.00;;;14.00;99.50;;;;;;5054713;28;20029;-65
2022/04/26 07:50:18;;;;;;;8.38;2.53;;;14.00;99.60;;;;;;5053822;28;20031;-65
2022/04/26 07:52:43;;;;;;;4.25;2.55;;;14.20;99.60;;;;;;5054789;28;20115;-65
2022/04/26 07:55:10;;;;;;;7.50;2.50;;;14.50;98.50;;;;;;5048594;28;20116;-65
2022/04/26 07:57:37;;;;;;;7.60;2.35;;;14.50;98.00;;;;;;5054792;28;20024;-64
2022/04/26 08:00:03;;;;;;;7.57;2.95;;;14.60;98.10;;;;;;5052828;28;20366;-64
2022/04/26 08:02:29;;;;;;;8.20;3.05;;;14.70;98.30;;;;;;5056645;28;20016;-62
2022/04/26 08:05:00;;;;;;;5.88;2.90;;;15.00;98.00;;;;;;5074417;28;20449;-68
2022/04/26 08:07:26;;;;;;;10.60;2.70;;;15.30;97.40;;;;;;5048509;28;20416;-63
2022/04/26 08:09:51;;;;;;;5.70;2.20;;;15.50;96.90;;;;;;5054150;28;20453;-67
2022/04/26 08:12:17;;;;;;;10.52;2.72;;;15.80;96.50;;;;;;5054668;28;20108;-64
2022/04/26 08:14:42;;;;;;;6.80;2.58;;;16.00;96.50;;;;;;5054459;28;20060;-67
2022/04/26 08:17:08;;;;;;;9.63;3.35;;;16.20;95.60;;;;;;5053160;28;20031;-64
2022/04/26 08:19:33;;;;;;;3.97;2.10;;;16.70;95.10;;;;;;5051752;28;20036;-65
2022/04/26 08:21:59;;;;;;;7.18;2.38;;;17.20;93.90;;;;;;5054144;28;20557;-65
2022/04/26 08:27:25;;;;;;;7.05;2.10;;;18.40;92.20;;;;;;5033803;28;20535;-64
2022/04/26 08:29:55;;;;;;;2.63;2.10;;;18.70;90.90;;;;;;5049602;28;20037;-66
2022/04/26 08:32:22;;;;;;;8.48;2.60;;;19.10;90.40;;;;;;5034077;28;20116;-66
2022/04/26 08:34:48;;;;;;;4.93;2.83;;;19.20;90.10;;;;;;5034076;28;20030;-65
2022/04/26 08:37:14;;;;;;;4.65;2.25;;;19.40;90.10;;;;;;5050926;28;20021;-65
2022/04/26 08:39:39;;;;;;;8.18;2.83;;;19.70;88.40;;;;;;5062601;28;20078;-66
2022/04/26 08:42:06;;;;;;;5.00;2.70;;;19.50;88.90;;;;;;5063585;28;20096;-66
2022/04/26 08:44:32;;;;;;;5.00;2.53;;;19.10;87.60;;;;;;5055551;28;20049;-66
2022/04/26 08:52:29;;;;;;;7.68;2.70;;;18.60;89.00;;;;;;5069739;28;20365;-64
2022/04/26 08:54:55;;;;;;;8.13;2.88;;;18.70;88.60;;;;;;5052499;28;20025;-62
2022/04/26 08:57:20;;;;;;;4.38;2.20;;;19.10;88.70;;;;;;5053436;28;20507;-64
2022/04/26 08:59:50;;;;;;;9.43;2.42;;;19.50;86.00;;;;;;5061543;28;20025;-68
2022/04/26 09:02:21;;;;;;;10.38;3.30;;;19.60;85.20;;;;;;5073326;28;20449;-68
2022/04/26 09:04:49;;;;;;;8.35;2.75;;;19.80;83.60;;;;;;5073258;28;20056;-66
2022/04/26 09:07:31;;;;;;;7.72;2.70;;;19.40;84.00;;;;;;5072333;28;20038;-64
2022/04/26 09:10:13;;;;;;;5.97;2.20;;;19.40;84.30;;;;;;5073440;28;20032;-64
2022/04/26 09:13:07;;;;;;;7.18;2.50;;;19.60;83.50;;;;;;5073403;28;20036;-68
2022/04/26 09:15:42;;;;;;;6.53;2.38;;;20.20;81.20;;;;;;5053809;28;20033;-66
2022/04/26 09:18:28;;;;;;;8.00;2.80;;;20.20;81.20;;;;;;5052807;28;20027;-67
2022/04/26 09:20:58;;;;;;;5.18;2.60;;;20.20;80.80;;;;;;5053014;28;20025;-68
2022/04/26 09:23:29;;;;;;;6.07;2.30;;;20.50;80.80;;;;;;5052630;28;20025;-66
2022/04/26 09:26:08;;;;;;;5.47;2.58;;;21.10;78.80;;;;;;5052844;28;20044;-66
2022/04/26 09:28:53;;;;;;;7.88;2.60;;;21.70;78.10;;;;;;5052409;28;20272;-67
2022/04/26 09:31:26;;;;;;;5.32;2.90;;;22.00;76.70;;;;;;5052647;28;20036;-69
2022/04/26 09:33:53;;;;;;;7.55;2.63;;;22.20;75.90;;;;;;5051993;28;20469;-67
2022/04/26 09:36:24;;;;;;;5.35;2.70;;;22.30;74.90;;;;;;5035639;28;20023;-65
2022/04/26 09:38:55;;;;;;;7.88;2.58;;;22.20;74.90;;;;;;5032818;28;20373;-64
2022/04/26 09:41:22;;;;;;;7.30;2.25;;;22.60;73.80;;;;;;5032785;28;20024;-64
2022/04/26 09:44:03;;;;;;;8.23;2.75;;;23.10;72.30;;;;;;5031310;28;20033;-65
2022/04/26 09:46:51;;;;;;;7.53;2.13;;;23.30;71.90;;;;;;5033887;28;20009;-65
2022/04/26 09:49:18;;;;;;;5.63;2.10;;;23.50;70.40;;;;;;5058777;28;20017;-66
2022/04/26 09:51:46;;;;;;;5.28;2.00;;;23.20;70.40;;;;;;5060269;28;20456;-67
2022/04/26 09:54:11;;;;;;;5.28;2.38;;;23.00;68.10;;;;;;5060574;28;20063;-65
2022/04/26 09:56:39;;;;;;;3.92;1.90;;;23.10;67.70;;;;;;5072233;28;20020;-66
2022/04/26 09:59:05;;;;;;;3.47;2.10;;;23.40;66.10;;;;;;5060891;28;20049;-66
2022/04/26 10:01:42;;;;;;;5.85;2.80;;;23.50;66.10;;;;;;5040680;28;20065;-65
2022/04/26 10:04:09;;;;;;;4.05;2.33;;;23.80;66.20;;;;;;5032346;28;20029;-64
2022/04/26 10:06:40;;;;;;;6.13;2.67;;;24.60;64.70;;;;;;5032365;28;20026;-64
2022/04/26 10:09:08;;;;;;;2.83;2.20;;;24.80;63.20;;;;;;5033317;28;20095;-63
2022/04/26 10:11:34;;;;;;;3.38;2.17;;;24.10;62.00;;;;;;5061077;28;20020;-67
2022/04/26 10:14:05;;;;;;;7.18;2.72;;;23.20;62.70;;;;;;5071591;28;20025;-66
2022/04/26 10:16:32;;;;;;;5.40;2.38;;;22.40;63.70;;;;;;5047568;28;20017;-64
2022/04/26 10:19:12;;;;;;;7.82;2.38;;;21.50;65.60;;;;;;5052851;28;20029;-62
2022/04/26 10:21:41;;;;;;;10.95;3.28;;;20.70;65.10;;;;;;5055494;28;20021;-66
2022/04/26 10:24:20;;;;;;;4.20;2.20;;;20.10;66.50;;;;;;5055263;28;20037;-64
2022/04/26 10:26:47;;;;;;;6.85;2.70;;;20.00;66.80;;;;;;5060348;28;20480;-64
2022/04/26 10:29:14;;;;;;;11.05;3.72;;;20.50;66.50;;;;;;5055310;28;20028;-66
2022/04/26 10:31:45;;;;;;;7.30;2.97;;;21.80;69.20;;;;;;5061037;28;20452;-64
2022/04/26 10:34:29;;;;;;;7.97;2.67;;;22.70;70.20;;;;;;5075692;28;20025;-64
2022/04/26 10:37:07;;;;;;;7.68;2.45;;;22.50;69.40;;;;;;5061671;28;20489;-64
2022/04/26 10:39:40;;;;;;;5.63;2.60;;;22.00;70.10;;;;;;5055636;28;20020;-66
2022/04/26 10:42:27;;;;;;;6.18;2.90;;;21.40;70.80;;;;;;5055475;28;20096;-66
2022/04/26 10:44:58;;;;;;;6.65;3.25;;;20.90;71.80;;;;;;5049395;28;20045;-65
2022/04/26 10:47:26;;;;;;;12.93;3.43;;;20.40;73.00;;;;;;5055621;28;20032;-64
2022/04/26 10:49:53;;;;;;;8.73;3.60;;;20.30;74.30;;;;;;5055668;28;20013;-64
2022/04/26 10:52:25;;;;;;;7.78;3.35;;;20.50;73.90;;;;;;5054764;28;20096;-66
2022/04/26 10:54:58;;;;;;;8.73;3.65;;;20.30;73.90;;;;;;5054542;28;20033;-63
2022/04/26 10:57:26;;;;;;;7.20;3.08;;;19.90;74.70;;;;;;5053686;28;20376;-63
2022/04/26 10:59:59;;;;;;;10.85;3.28;;;19.30;75.00;;;;;;5034826;28;20037;-64
2022/04/26 11:02:27;;;;;;;8.10;3.40;;;18.80;75.80;;;;;;5054244;28;20060;-64
2022/04/26 11:05:01;;;;;;;9.85;3.13;;;18.40;76.80;;;;;;5055029;28;20029;-64
2022/04/26 11:07:29;;;;;;;10.13;3.50;;;18.40;78.10;;;;;;5054817;28;20013;-63
2022/04/26 11:09:56;;;;;;;8.90;3.10;;;19.40;76.20;;;;;;5064680;28;20024;-63
2022/04/26 11:12:24;;;;;;;8.07;3.33;;;20.90;73.60;;;;;;5056657;28;20476;-63
2022/04/26 11:14:52;;;;;;;8.48;3.40;;;22.50;70.90;;;;;;5069148;28;20037;-66
2022/04/26 11:17:19;;;;;;;8.75;3.40;;;23.30;69.00;;;;;;5061563;28;20082;-65
2022/04/26 11:20:16;;;;;;;7.95;2.90;;;23.00;68.30;;;;;;5062557;28;20429;-65
2022/04/26 11:22:49;;;;;;;7.28;2.80;;;22.30;68.40;;;;;;5053696;28;20029;-64
2022/04/26 11:28:09;;;;;;;6.82;2.28;;;22.70;68.20;;;;;;5059593;28;20052;-63
2022/04/26 11:30:44;;;;;;;7.22;2.38;;;23.40;65.50;;;;;;5062452;28;20032;-66
2022/04/26 11:33:22;;;;;;;8.38;2.63;;;24.10;62.40;;;;;;5064800;28;20075;-64
2022/04/26 11:36:01;;;;;;;5.65;2.85;;;25.00;62.00;;;;;;5064008;28;20029;-63
2022/04/26 11:38:27;;;;;;;10.15;3.13;;;25.40;63.20;;;;;;5061742;28;20034;-64
2022/04/26 11:40:58;;;;;;;9.00;2.60;;;26.00;62.70;;;;;;5062280;28;20031;-67
2022/04/26 11:43:28;;;;;;;7.30;2.72;;;26.20;62.40;;;;;;5053963;28;20489;-64
2022/04/26 11:45:55;;;;;;;6.50;2.70;;;26.40;61.40;;;;;;5054106;28;20087;-63
2022/04/26 11:48:22;;;;;;;5.90;2.25;;;26.40;60.20;;;;;;5050926;28;20116;-64
2022/04/26 11:50:49;;;;;;;8.10;3.00;;;26.60;58.60;;;;;;5052706;28;20032;-64
2022/04/26 11:53:17;;;;;;;7.10;2.55;;;26.80;59.40;;;;;;5052111;28;20068;-65
2022/04/26 11:55:55;;;;;;;6.45;2.65;;;27.00;59.00;;;;;;5052356;28;20056;-64
2022/04/26 11:58:23;;;;;;;5.38;2.40;;;27.20;58.40;;;;;;5053755;28;20480;-66
2022/04/26 12:01:00;;;;;;;8.05;3.10;;;27.10;57.80;;;;;;5053944;28;20051;-64
2022/04/26 12:03:38;;;;;;;9.30;2.90;;;26.80;58.60;;;;;;5044154;28;20103;-64
2022/04/26 12:06:10;;;;;;;7.43;2.50;;;26.80;58.30;;;;;;5054029;28;20477;-64
2022/04/26 12:08:38;;;;;;;6.85;2.50;;;26.70;57.70;;;;;;5053327;28;20017;-66
2022/04/26 12:11:20;;;;;;;9.60;2.70;;;26.70;57.40;;;;;;5052173;28;20052;-67
2022/04/26 12:14:01;;;;;;;5.88;2.38;;;26.60;56.80;;;;;;5053747;28;20067;-64
2022/04/26 12:16:28;;;;;;;10.82;2.83;;;26.20;56.60;;;;;;5053753;28;20025;-66
2022/04/26 12:18:56;;;;;;;9.18;2.80;;;26.30;57.40;;;;;;5054242;28;20095;-65
2022/04/26 12:21:24;;;;;;;7.07;2.47;;;26.30;57.50;;;;;;5054068;28;20087;-66
2022/04/26 12:24:13;;;;;;;4.00;2.28;;;26.50;57.10;;;;;;5053724;28;20060;-68
2022/04/26 12:26:57;;;;;;;7.25;2.58;;;26.80;55.90;;;;;;5053853;28;20095;-67
2022/04/26 12:29:25;;;;;;;3.85;1.65;;;27.00;54.60;;;;;;5054045;28;20119;-63
2022/04/26 12:31:51;;;;;;;3.92;1.88;;;26.80;52.80;;;;;;5054172;28;20518;-65
2022/04/26 12:34:22;;;;;;;5.63;2.20;;;25.60;53.20;;;;;;5053916;28;20043;-65
2022/04/26 12:37:01;;;;;;;3.50;1.90;;;24.70;54.90;;;;;;5054153;28;20020;-67
2022/04/26 12:39:48;;;;;;;6.88;2.35;;;23.90;55.30;;;;;;5053659;28;20013;-63
2022/04/26 12:42:26;;;;;;;6.65;2.53;;;23.50;56.00;;;;;;5052670;28;20013;-66
2022/04/26 12:44:54;;;;;;;5.38;2.30;;;23.00;56.70;;;;;;5053081;28;20040;-65
2022/04/26 12:52:58;;;;;;;7.05;2.50;;;21.30;60.00;;;;;;5053192;28;20420;-65
2022/04/26 12:55:30;;;;;;;5.05;2.00;;;20.90;60.20;;;;;;5053150;28;20028;-64
2022/04/26 12:58:09;;;;;;;7.70;2.40;;;20.20;60.70;;;;;;5053155;28;20025;-64
2022/04/26 13:00:43;;;;;;;6.05;2.25;;;19.80;61.80;;;;;;5053532;28;20033;-63
2022/04/26 13:03:11;;;;;;;2.58;1.92;;;19.40;63.40;;;;;;5052218;28;20360;-65
2022/04/26 13:05:44;;;;;;;6.78;2.55;;;19.30;63.20;;;;;;5051633;28;20024;-65
2022/04/26 13:08:11;;;;;;;8.57;2.35;;;19.10;64.30;;;;;;5053014;28;20021;-64
2022/04/26 13:10:37;;;;;;;5.32;2.03;;;19.00;64.90;;;;;;5052916;28;20025;-63
2022/04/26 13:13:03;;;;;;;5.22;2.30;;;19.00;65.10;;;;;;5052901;28;20371;-66
2022/04/26 13:15:29;;;;;;;7.20;2.50;;;18.90;64.10;;;;;;5053028;28;20049;-64
2022/04/26 13:17:54;;;;;;;8.32;3.17;;;18.80;64.30;;;;;;5053173;28;20055;-63
2022/04/26 13:20:21;;;;;;;6.63;2.47;;;18.80;65.10;;;;;;5052790;28;20048;-62
2022/04/26 13:22:47;;;;;;;6.15;2.70;;;18.70;65.80;;;;;;5052934;28;20017;-65
2022/04/26 13:25:12;;;;;;;4.38;1.88;;;18.50;66.20;;;;;;5053296;28;20033;-65
2022/04/26 13:27:39;;;;;;;5.75;2.55;;;18.20;66.10;;;;;;5053171;28;20056;-66
2022/04/26 13:30:07;;;;;;;7.60;2.72;;;17.80;68.90;;;;;;5052966;28;20105;-64
2022/04/26 13:32:32;;;;;;;5.20;2.38;;;17.60;69.30;;;;;;5052970;28;20021;-66
2022/04/26 13:34:58;;;;;;;9.48;2.95;;;17.40;69.30;;;;;;5051679;28;20033;-66
2022/04/26 13:37:25;;;;;;;6.15;2.70;;;17.40;68.70;;;;;;5052792;28;20032;-65
2022/04/26 13:39:51;;;;;;;6.32;2.70;;;17.10;69.20;;;;;;5052376;28;20438;-63
2022/04/26 13:42:19;;;;;;;8.48;3.00;;;16.80;70.50;;;;;;5052611;28;20029;-66
2022/04/26 13:44:45;;;;;;;8.40;2.97;;;16.70;72.10;;;;;;5052740;28;20033;-66
2022/04/26 13:47:11;;;;;;;8.60;3.30;;;16.70;72.00;;;;;;5052564;28;20032;-67
2022/04/26 13:49:39;;;;;;;10.18;3.50;;;16.70;72.70;;;;;;5052614;28;20025;-65
2022/04/26 13:52:06;;;;;;;7.38;3.47;;;16.80;72.50;;;;;;5052580;28;20013;-63
2022/04/26 13:54:32;;;;;;;10.95;3.83;;;17.00;72.80;;;;;;5054835;28;20017;-65
2022/04/26 13:56:58;;;;;;;8.00;3.50;;;17.20;73.00;;;;;;5056996;28;20024;-65
2022/04/26 13:59:24;;;;;;;7.43;3.60;;;17.40;72.90;;;;;;5057117;28;20032;-65
2022/04/26 14:01:53;;;;;;;15.88;3.83;;;17.70;72.90;;;;;;5056986;28;20028;-65
2022/04/26 14:04:19;;;;;;;9.30;4.15;;;17.90;72.60;;;;;;5056156;28;20043;-67
2022/04/26 14:06:46;;;;;;;7.25;2.75;;;18.00;72.90;;;;;;5056083;28;20065;-66
2022/04/26 14:09:12;;;;;;;7.53;2.85;;;18.20;72.40;;;;;;5056325;28;20108;-65
2022/04/26 14:11:37;;;;;;;7.22;2.65;;;18.30;72.40;;;;;;5056253;28;20060;-66
2022/04/26 14:22:15;;;;;;;7.88;3.78;;;18.20;71.50;;;;;;5056354;28;20079;-66
2022/04/26 14:24:41;;;;;;;10.07;3.42;;;17.90;72.10;;;;;;5056257;28;20068;-65
2022/04/26 14:27:07;;;;;;;8.60;3.50;;;17.70;72.40;;;;;;5056160;28;20074;-65
2022/04/26 14:29:33;;;;;;;5.78;2.95;;;17.60;72.80;;;;;;5056372;28;20361;-63
2022/04/26 14:31:59;;;;;;;9.27;3.33;;;17.40;72.60;;;;;;5056411;28;20384;-66
2022/04/26 14:34:25;;;;;;;7.75;3.35;;;17.10;73.00;;;;;;5056109;28;20248;-66
2022/04/26 14:36:51;;;;;;;6.65;3.00;;;17.00;73.70;;;;;;5055906;28;20017;-64
2022/04/26 14:39:17;;;;;;;4.95;2.80;;;16.90;74.80;;;;;;5054446;28;20111;-66
2022/04/26 14:41:43;;;;;;;6.05;2.72;;;16.80;74.30;;;;;;5056093;28;20044;-67
2022/04/26 14:44:08;;;;;;;4.85;2.80;;;16.60;74.60;;;;;;5056102;28;20032;-64
2022/04/26 14:46:35;;;;;;;6.80;2.50;;;16.50;76.40;;;;;;5056381;28;20467;-65
2022/04/26 14:49:00;;;;;;;6.15;2.45;;;16.40;77.80;;;;;;5056240;28;20029;-63
2022/04/26 14:51:26;;;;;;;6.38;2.75;;;16.40;76.00;;;;;;5056342;28;20077;-66
2022/04/26 14:53:52;;;;;;;7.60;3.13;;;16.50;77.00;;;;;;5054855;28;20039;-68
2022/04/26 14:56:17;;;;;;;8.82;3.10;;;16.50;77.60;;;;;;5056350;28;20060;-66
2022/04/26 14:58:43;;;;;;;8.80;3.40;;;16.50;77.70;;;;;;5055660;28;20462;-66
2022/04/26 15:01:10;;;;;;;8.60;3.10;;;16.60;77.80;;;;;;5055553;28;20120;-63
2022/04/26 15:03:36;;;;;;;12.65;4.35;;;16.70;77.20;;;;;;5055578;28;20025;-66
2022/04/26 15:06:02;;;;;;;11.23;4.03;;;16.70;77.50;;;;;;5054488;28;20376;-65
2022/04/26 15:11:12;;;;;;;8.55;2.85;;;16.70;76.40;;;;;;5055725;28;20090;-66
2022/04/26 15:16:37;;;;;;;10.68;4.07;;;16.60;78.10;;;;;;5055582;28;20059;-63
2022/04/26 15:19:07;;;;;;;10.93;3.83;;;16.60;78.50;;;;;;5055499;28;20027;-64
2022/04/26 15:21:33;;;;;;;10.75;3.63;;;16.70;78.90;;;;;;5055286;28;20039;-64
2022/04/26 15:23:59;;;;;;;6.75;3.00;;;16.70;79.10;;;;;;5055249;28;20067;-63
2022/04/26 15:26:25;;;;;;;6.80;3.28;;;16.70;78.70;;;;;;5055403;28;20056;-62
2022/04/26 15:28:51;;;;;;;8.65;3.40;;;16.80;78.80;;;;;;5055078;28;20378;-64
2022/04/26 15:31:20;;;;;;;9.23;3.20;;;16.80;78.80;;;;;;5053687;28;20036;-65
2022/04/26 15:33:48;;;;;;;12.10;3.55;;;16.90;79.30;;;;;;5054831;28;20472;-66
2022/04/26 15:36:14;;;;;;;9.07;3.17;;;16.90;80.00;;;;;;5054531;28;20025;-65
2022/04/26 15:38:40;;;;;;;12.98;3.55;;;16.80;79.40;;;;;;5054948;28;20465;-63
2022/04/26 15:41:06;;;;;;;9.18;3.13;;;16.80;80.00;;;;;;5054567;28;20060;-67
2022/04/26 15:43:33;;;;;;;10.18;3.60;;;16.60;80.50;;;;;;5054517;28;20020;-65
2022/04/26 15:46:02;;;;;;;8.02;2.95;;;16.40;80.90;;;;;;5054992;28;20029;-65
2022/04/26 15:48:27;;;;;;;9.77;3.40;;;16.20;80.40;;;;;;5054866;28;20029;-64
2022/04/26 15:50:53;;;;;;;11.85;3.42;;;16.00;81.40;;;;;;5055035;28;20025;-65
2022/04/26 15:53:19;;;;;;;8.43;3.33;;;16.10;81.40;;;;;;5054620;28;20021;-65
2022/04/26 15:55:45;;;;;;;6.82;2.80;;;16.10;82.30;;;;;;5054648;28;20032;-64
2022/04/26 15:58:11;;;;;;;7.28;2.97;;;16.10;80.30;;;;;;5054666;28;20089;-65
2022/04/26 16:00:37;;;;;;;9.85;3.08;;;16.00;81.40;;;;;;5054242;28;20475;-64
2022/04/26 16:03:03;;;;;;;8.15;3.08;;;15.90;82.10;;;;;;5054512;28;20174;-65
2022/04/26 16:05:29;;;;;;;8.27;2.92;;;15.90;82.10;;;;;;5053123;28;20029;-64
2022/04/26 16:07:55;;;;;;;7.43;3.30;;;15.80;81.60;;;;;;5054290;28;20024;-65
2022/04/26 16:21:22;;;;;;;7.25;3.00;;;15.80;81.10;;;;;;5054406;28;20028;-66
2022/04/26 16:23:48;;;;;;;7.60;2.80;;;15.70;81.10;;;;;;5052846;28;20128;-63
2022/04/26 16:26:14;;;;;;;10.63;3.10;;;15.70;80.80;;;;;;5053882;28;20025;-63
2022/04/26 16:28:40;;;;;;;8.07;2.63;;;15.70;80.90;;;;;;5053846;28;20040;-62
2022/04/26 16:31:06;;;;;;;5.35;2.58;;;15.60;80.70;;;;;;5054141;28;20036;-65
2022/04/26 16:33:32;;;;;;;9.32;2.88;;;15.60;80.60;;;;;;5054228;28;20514;-64
2022/04/26 16:35:57;;;;;;;7.13;2.72;;;15.50;80.60;;;;;;5054059;28;20029;-66
2022/04/26 16:38:23;;;;;;;5.93;2.40;;;15.40;80.80;;;;;;5054302;28;20025;-65
2022/04/26 16:40:50;;;;;;;9.82;2.85;;;15.40;80.70;;;;;;5053698;28;20196;-62
2022/04/26 16:43:16;;;;;;;8.98;2.78;;;15.30;81.70;;;;;;5053779;28;20380;-64
2022/04/26 16:45:51;;;;;;;8.70;2.58;;;15.20;82.10;;;;;;5054176;28;20029;-63
2022/04/26 16:48:17;;;;;;;8.68;2.70;;;15.20;82.50;;;;;;5054055;28;20021;-63
2022/04/26 16:50:42;;;;;;;9.27;2.90;;;15.20;83.10;;;;;;5053736;28;20065;-63
2022/04/26 16:53:08;;;;;;;5.68;2.50;;;15.10;83.40;;;;;;5053733;28;20044;-64
2022/04/26 16:55:33;;;;;;;4.38;2.08;;;15.10;83.60;;;;;;5053667;28;20025;-64
2022/04/26 16:58:01;;;;;;;4.13;1.85;;;15.10;84.20;;;;;;5053844;28;20468;-66
2022/04/26 17:00:28;;;;;;;4.97;2.47;;;15.10;84.50;;;;;;5053625;28;20017;-62
2022/04/26 17:02:54;;;;;;;8.48;2.50;;;15.10;84.90;;;;;;5053322;28;20077;-67
2022/04/26 17:05:22;;;;;;;7.63;2.10;;;15.10;84.70;;;;;;5053277;28;20078;-63
2022/04/26 17:07:49;;;;;;;7.20;2.55;;;15.10;84.60;;;;;;5053645;28;20017;-63
2022/04/26 17:10:15;;;;;;;5.90;2.10;;;15.10;83.80;;;;;;5052525;28;20024;-67
2022/04/26 17:12:41;;;;;;;6.93;2.33;;;14.90;83.80;;;;;;5053723;28;20020;-66